Champion, North Carolina
Current Conditions -  °F | °C
As of 12:55 PM on Monday 22 Dec 2014 (Local Time) from KTNB Reporting Station
Haze Haze  
Wind Chill: 39°   Ceiling: 300
Heat Index: 39°   Visibility: 1.2mi
Dew Point: 39°   Wind: 3mph
Humidity: 100%   Direction: 360°N
Pressure: 30.01"   Gusts: NA
Location:  36.1322°N, 81.415°W
Report Text: KTNB 221755Z AUTO 36003KT 1 1/4SM BR OVC003 04/04 A3001 RMK AO2 LTG DSNT SW T00370037 10037 20012
Loading
Personal Weather Stations






























Interactive Weather Map New forecast layout! Learn more

10-Day Weather Forecast

Advertisements
Track Severe Weather on mobile